Time;durP1;ratioP1;P1;durP2;ratioP2;P2;SDS_P1;SDS_P2;PMS_P1;PMS_P2;Temp;Humidity;BMP_temperature;BMP_pressure;BME280_temperature;BME280_humidity;BME280_pressure;Samples;Min_cycle;Max_cycle;Signal;HPM_P1;HPM_P2
2021/06/06 00:00:44;;;;;;;12.48;7.93;;;;;;;18.52;73.82;100331.50;5053072;28;20045;-72
2021/06/06 00:03:16;;;;;;;10.70;7.20;;;;;;;18.63;73.24;100317.88;5053511;28;20452;-71
2021/06/06 00:05:48;;;;;;;11.13;7.55;;;;;;;18.60;73.19;100310.91;5051790;28;20053;-72
2021/06/06 00:08:16;;;;;;;12.88;7.90;;;;;;;18.56;73.76;100309.50;5053271;28;20048;-71
2021/06/06 00:10:44;;;;;;;10.10;7.78;;;;;;;18.61;73.05;100311.75;5053126;28;20140;-71
2021/06/06 00:13:14;;;;;;;12.50;7.97;;;;;;;18.59;73.32;100316.44;5053123;28;20437;-70
2021/06/06 00:15:43;;;;;;;9.70;7.15;;;;;;;18.60;73.11;100313.59;5052861;28;20051;-70
2021/06/06 00:18:11;;;;;;;11.90;7.63;;;;;;;18.48;73.36;100313.88;5053198;28;20052;-71
2021/06/06 00:20:40;;;;;;;9.95;7.40;;;;;;;18.37;74.26;100317.59;5052798;28;20053;-71
2021/06/06 00:23:09;;;;;;;11.43;8.20;;;;;;;18.39;74.12;100315.59;5053083;28;20055;-70
2021/06/06 00:25:38;;;;;;;12.82;7.30;;;;;;;18.55;73.43;100323.16;5051777;28;20044;-71
2021/06/06 00:28:06;;;;;;;10.50;7.72;;;;;;;18.30;73.82;100313.72;5053226;28;20064;-70
2021/06/06 00:30:36;;;;;;;9.68;7.35;;;;;;;18.42;73.58;100331.50;5053298;28;20087;-71
2021/06/06 00:33:05;;;;;;;9.57;7.10;;;;;;;18.43;73.34;100317.03;5052955;28;20367;-71
2021/06/06 00:35:33;;;;;;;13.40;7.43;;;;;;;18.37;73.69;100322.97;5052929;28;20379;-71
2021/06/06 00:38:01;;;;;;;9.07;7.45;;;;;;;18.40;73.88;100322.69;5052873;28;20049;-71
2021/06/06 00:40:32;;;;;;;8.88;6.95;;;;;;;18.35;73.66;100318.72;5052784;28;20049;-71
2021/06/06 00:43:00;;;;;;;8.85;7.13;;;;;;;18.18;74.71;100307.59;5052547;28;20045;-71
2021/06/06 00:45:30;;;;;;;9.70;7.43;;;;;;;18.38;73.54;100305.78;5052725;28;20057;-71
2021/06/06 00:47:59;;;;;;;9.85;6.88;;;;;;;18.41;73.39;100301.94;5052716;28;20409;-71
2021/06/06 00:50:31;;;;;;;9.20;6.72;;;;;;;18.33;73.72;100299.09;5052771;28;20453;-71
2021/06/06 00:53:02;;;;;;;9.32;6.93;;;;;;;18.26;73.19;100293.41;5052541;28;20135;-71
2021/06/06 00:55:31;;;;;;;9.13;6.95;;;;;;;18.16;73.56;100297.94;5052966;28;20067;-70
2021/06/06 00:58:02;;;;;;;13.02;7.28;;;;;;;18.21;73.59;100295.66;5055461;28;20045;-72
2021/06/06 01:00:34;;;;;;;11.30;7.22;;;;;;;18.31;73.17;100299.22;5059601;28;20517;-72
2021/06/06 01:03:05;;;;;;;8.98;6.95;;;;;;;18.28;73.21;100296.81;5059174;28;20103;-72
2021/06/06 01:05:35;;;;;;;11.88;6.65;;;;;;;18.28;73.40;100302.22;5059385;28;20497;-72
2021/06/06 01:08:04;;;;;;;9.55;6.90;;;;;;;18.37;72.91;100289.72;5059325;28;20120;-72
2021/06/06 01:10:35;;;;;;;9.80;6.82;;;;;;;18.28;73.34;100296.81;5059308;28;20478;-72
2021/06/06 01:13:05;;;;;;;12.05;7.22;;;;;;;18.24;73.21;100290.88;5059393;28;20582;-73
2021/06/06 01:15:37;;;;;;;10.93;6.90;;;;;;;18.08;74.29;100300.50;5059220;28;20048;-73
2021/06/06 01:18:14;;;;;;;7.95;6.43;;;;;;;18.20;73.64;100300.22;5059291;28;20041;-73
2021/06/06 01:20:53;;;;;;;11.40;6.93;;;;;;;18.20;73.60;100307.47;5059190;28;20041;-73
2021/06/06 01:23:44;;;;;;;9.07;6.90;;;;;;;18.21;73.38;100311.88;5059562;28;20087;-74
2021/06/06 01:26:21;;;;;;;9.52;7.25;;;;;;;18.11;73.62;100311.84;5059266;28;20045;-74
2021/06/06 01:28:56;;;;;;;8.70;6.82;;;;;;;17.93;74.12;100305.41;5058910;28;20413;-74
2021/06/06 01:31:27;;;;;;;8.68;7.25;;;;;;;18.17;72.96;100300.50;5058074;28;20041;-74
2021/06/06 01:33:59;;;;;;;10.38;6.40;;;;;;;18.00;73.58;100302.03;5058957;28;20040;-73
2021/06/06 01:36:30;;;;;;;9.20;6.55;;;;;;;17.87;74.20;100300.59;5059396;28;20099;-71
2021/06/06 01:39:00;;;;;;;10.88;7.13;;;;;;;17.96;74.10;100302.47;5058707;28;20045;-71
2021/06/06 01:41:35;;;;;;;9.10;6.30;;;;;;;17.98;73.90;100297.78;5059381;28;20049;-71
2021/06/06 01:44:07;;;;;;;10.63;6.95;;;;;;;18.02;73.71;100297.34;5058384;28;20044;-71
2021/06/06 01:46:40;;;;;;;8.48;6.93;;;;;;;17.92;74.20;100296.47;5059155;28;20044;-71
2021/06/06 01:49:11;;;;;;;9.23;6.32;;;;;;;17.89;74.39;100295.91;5059155;28;20071;-71
2021/06/06 01:51:43;;;;;;;8.63;6.85;;;;;;;18.01;73.99;100295.63;5058947;28;20041;-71
2021/06/06 01:54:13;;;;;;;9.73;7.03;;;;;;;17.96;74.34;100288.97;5058906;28;20041;-71
2021/06/06 01:56:47;;;;;;;9.27;7.00;;;;;;;18.10;74.00;100282.31;5059016;28;20052;-75
2021/06/06 01:59:18;;;;;;;8.50;6.70;;;;;;;18.03;74.20;100284.69;5058985;28;20064;-71
2021/06/06 02:01:46;;;;;;;10.10;6.70;;;;;;;17.98;74.08;100285.13;5058862;28;20474;-71
2021/06/06 02:04:14;;;;;;;9.90;6.90;;;;;;;17.98;74.20;100289.69;5058859;28;20045;-72
2021/06/06 02:06:45;;;;;;;10.15;7.10;;;;;;;17.88;74.40;100288.81;5058531;28;20045;-77
2021/06/06 02:09:17;;;;;;;8.93;6.80;;;;;;;17.89;74.41;100291.34;5056712;28;20051;-71
2021/06/06 02:11:50;;;;;;;9.27;6.30;;;;;;;17.70;75.03;100286.75;5055579;28;20045;-72
2021/06/06 02:14:20;;;;;;;11.60;7.03;;;;;;;17.65;75.29;100283.56;5055777;28;20045;-70
2021/06/06 02:16:53;;;;;;;12.40;6.90;;;;;;;17.78;74.89;100287.91;5055575;28;20509;-71
2021/06/06 02:19:26;;;;;;;11.15;7.00;;;;;;;18.05;73.40;100282.75;5055466;28;20048;-70
2021/06/06 02:21:55;;;;;;;9.68;6.78;;;;;;;18.01;73.18;100279.44;5055151;28;20090;-71
2021/06/06 02:24:24;;;;;;;9.60;6.95;;;;;;;17.95;73.68;100287.22;5055382;28;20045;-70
2021/06/06 02:26:57;;;;;;;9.10;7.00;;;;;;;17.81;74.48;100291.19;5055064;28;20045;-70
2021/06/06 02:29:30;;;;;;;9.85;6.72;;;;;;;17.76;74.76;100303.38;5055306;28;20433;-70
2021/06/06 02:32:02;;;;;;;;;;;;;;;17.91;74.05;100293.91;5055257;28;20053;-69
2021/06/06 02:34:40;;;;;;;11.30;6.82;;;;;;;18.00;73.59;100287.69;5055156;28;20454;-69
2021/06/06 02:37:13;;;;;;;8.93;6.53;;;;;;;17.77;74.50;100297.88;5055063;28;20052;-71
2021/06/06 02:39:46;;;;;;;11.70;7.15;;;;;;;17.74;74.74;100303.50;5055221;28;20045;-74
2021/06/06 02:42:20;;;;;;;8.82;6.75;;;;;;;17.41;76.21;100310.88;5055088;28;20135;-68
2021/06/06 02:44:51;;;;;;;9.98;7.38;;;;;;;17.45;76.14;100304.22;5053299;28;20061;-68
2021/06/06 02:47:23;;;;;;;10.95;7.03;;;;;;;17.37;76.84;100301.38;5055059;28;20041;-73
2021/06/06 02:49:52;;;;;;;10.35;7.07;;;;;;;17.45;76.47;100288.03;5054719;28;20049;-73
2021/06/06 02:52:23;;;;;;;7.38;6.38;;;;;;;17.65;75.85;100305.16;5054720;28;20391;-72
2021/06/06 02:55:00;;;;;;;10.65;7.13;;;;;;;17.65;75.89;100299.75;5054376;28;20041;-71
2021/06/06 02:57:33;;;;;;;9.88;6.93;;;;;;;17.59;76.08;100307.56;5054860;28;20045;-71
2021/06/06 03:00:13;;;;;;;10.30;7.00;;;;;;;17.57;76.13;100307.69;5054428;28;20060;-71
2021/06/06 03:02:44;;;;;;;11.00;7.32;;;;;;;17.65;76.03;100315.94;5054738;28;20049;-71
2021/06/06 03:05:16;;;;;;;9.63;7.28;;;;;;;17.68;75.74;100321.06;5054622;28;20099;-71
2021/06/06 03:07:47;;;;;;;12.20;7.28;;;;;;;17.51;76.68;100323.56;5054610;28;20099;-71
2021/06/06 03:10:16;;;;;;;10.38;6.68;;;;;;;17.68;75.98;100313.00;5054618;28;20470;-71
2021/06/06 03:12:50;;;;;;;9.50;6.75;;;;;;;17.70;75.48;100313.72;5054263;28;20072;-72
2021/06/06 03:15:19;;;;;;;10.02;7.10;;;;;;;17.46;76.31;100321.25;5054361;28;20053;-71
2021/06/06 03:17:53;;;;;;;11.38;7.22;;;;;;;17.63;75.78;100317.91;5054157;28;20047;-71
2021/06/06 03:20:23;;;;;;;12.85;7.43;;;;;;;17.72;75.41;100321.69;5054569;28;20057;-70
2021/06/06 03:22:53;;;;;;;10.73;7.15;;;;;;;17.73;75.22;100313.44;5054201;28;20049;-71
2021/06/06 03:25:33;;;;;;;10.95;7.55;;;;;;;17.69;75.25;100311.13;5054230;28;20041;-71
2021/06/06 03:28:03;;;;;;;11.63;7.50;;;;;;;17.86;74.61;100315.06;5053991;28;20048;-71
2021/06/06 03:30:35;;;;;;;11.13;7.22;;;;;;;17.91;74.11;100321.75;5054207;28;20482;-71
2021/06/06 03:33:07;;;;;;;9.23;7.13;;;;;;;18.01;73.76;100311.84;5053734;28;20128;-71
2021/06/06 03:35:35;;;;;;;10.85;7.47;;;;;;;18.41;72.42;100320.84;5054385;28;20045;-71
2021/06/06 03:38:04;;;;;;;8.52;7.05;;;;;;;18.95;69.96;100316.75;5053891;28;20041;-69
2021/06/06 03:40:36;;;;;;;11.73;7.60;;;;;;;19.17;68.76;100317.28;5054091;28;20474;-71
2021/06/06 03:43:06;;;;;;;8.70;6.65;;;;;;;19.67;66.36;100316.13;5053742;28;20070;-72
2021/06/06 03:45:34;;;;;;;10.10;7.30;;;;;;;20.52;63.51;100321.22;5053777;28;20110;-70
2021/06/06 03:48:03;;;;;;;11.35;7.05;;;;;;;20.93;61.83;100327.00;5053296;28;20505;-72
2021/06/06 03:50:32;;;;;;;14.18;7.35;;;;;;;20.96;61.67;100329.41;5053856;28;20414;-71
2021/06/06 03:53:00;;;;;;;9.38;6.70;;;;;;;21.47;60.16;100322.31;5053399;28;20094;-73
2021/06/06 03:55:28;;;;;;;8.88;6.38;;;;;;;21.67;59.19;100328.38;5053845;28;20049;-74
2021/06/06 03:57:56;;;;;;;9.77;6.20;;;;;;;22.11;57.66;100326.41;5053572;28;20367;-75
2021/06/06 04:00:29;;;;;;;8.65;6.15;;;;;;;21.98;57.58;100331.41;5053652;28;20497;-71
2021/06/06 04:02:57;;;;;;;10.43;6.35;;;;;;;22.20;57.23;100339.00;5053299;28;20040;-72
2021/06/06 04:05:25;;;;;;;10.10;6.13;;;;;;;22.02;57.07;100338.22;5053606;28;20068;-72
2021/06/06 04:07:53;;;;;;;10.40;6.75;;;;;;;21.93;57.55;100336.47;5053210;28;20382;-73
2021/06/06 04:10:22;;;;;;;8.23;6.43;;;;;;;20.90;60.76;100351.72;5053873;28;20091;-74
2021/06/06 04:12:50;;;;;;;9.18;5.95;;;;;;;20.66;61.64;100346.09;5052002;28;20131;-74
2021/06/06 04:15:18;;;;;;;10.82;6.57;;;;;;;20.37;62.89;100355.25;5053369;28;20048;-72
2021/06/06 04:17:48;;;;;;;10.27;6.88;;;;;;;19.71;65.31;100347.31;5053508;28;20372;-73
2021/06/06 04:20:18;;;;;;;9.77;7.18;;;;;;;19.52;66.16;100352.78;5053074;28;20048;-72
2021/06/06 04:22:46;;;;;;;10.23;7.35;;;;;;;19.17;67.53;100356.97;5053382;28;20064;-72
2021/06/06 04:25:16;;;;;;;7.90;6.40;;;;;;;19.45;66.37;100350.66;5053007;28;20043;-71
2021/06/06 04:27:44;;;;;;;8.88;7.22;;;;;;;19.15;67.45;100365.25;5053257;28;20041;-71
2021/06/06 04:30:14;;;;;;;11.15;7.63;;;;;;;18.75;69.07;100361.84;5052739;28;20041;-72
2021/06/06 04:32:42;;;;;;;12.38;7.82;;;;;;;18.80;69.04;100371.22;5052662;28;20397;-71
2021/06/06 04:35:11;;;;;;;10.80;7.80;;;;;;;18.63;69.79;100363.81;5052584;28;20052;-72
2021/06/06 04:37:39;;;;;;;10.18;8.20;;;;;;;18.70;69.84;100378.47;5053186;28;20056;-69
2021/06/06 04:40:09;;;;;;;11.23;8.20;;;;;;;18.50;70.13;100374.03;5052793;28;20060;-69
2021/06/06 04:42:37;;;;;;;10.85;7.80;;;;;;;18.84;69.16;100371.81;5053029;28;20375;-69
2021/06/06 04:45:07;;;;;;;9.98;7.32;;;;;;;20.12;64.48;100361.38;5052146;28;20479;-70
2021/06/06 04:47:35;;;;;;;12.13;7.50;;;;;;;19.61;65.43;100370.88;5051711;28;20053;-69
2021/06/06 04:50:05;;;;;;;10.90;7.38;;;;;;;19.92;64.15;100360.63;5052453;28;20045;-70
2021/06/06 04:52:36;;;;;;;10.88;7.13;;;;;;;19.61;65.25;100368.16;5052677;28;20486;-70
2021/06/06 04:55:07;;;;;;;10.48;6.82;;;;;;;19.52;65.79;100369.00;5052320;28;20573;-70
2021/06/06 04:57:35;;;;;;;11.15;6.97;;;;;;;19.25;66.46;100373.34;5052652;28;20037;-70
2021/06/06 05:00:08;;;;;;;8.85;7.40;;;;;;;19.29;66.54;100374.72;5052401;28;20123;-70
2021/06/06 05:02:36;;;;;;;10.75;6.97;;;;;;;19.79;64.48;100371.81;5052963;28;20076;-70
2021/06/06 05:05:07;;;;;;;9.65;7.22;;;;;;;19.40;65.54;100371.91;5052338;28;20044;-70
2021/06/06 05:07:37;;;;;;;8.93;6.40;;;;;;;21.24;60.27;100368.09;5052394;28;20492;-70
2021/06/06 05:10:08;;;;;;;10.50;6.85;;;;;;;22.01;57.81;100363.69;5052036;28;20041;-70
2021/06/06 05:12:38;;;;;;;9.48;6.50;;;;;;;22.61;56.34;100363.53;5052852;28;20103;-69
2021/06/06 05:15:10;;;;;;;11.68;6.45;;;;;;;23.61;52.76;100369.69;5052597;28;20118;-70
2021/06/06 05:17:38;;;;;;;8.75;5.90;;;;;;;24.45;49.97;100370.94;5052535;28;20041;-70
2021/06/06 05:20:08;;;;;;;7.70;5.35;;;;;;;24.62;48.77;100368.97;5052194;28;20045;-71
2021/06/06 05:22:38;;;;;;;7.20;5.63;;;;;;;24.70;48.24;100371.63;5052694;28;20044;-71
2021/06/06 05:25:07;;;;;;;8.15;5.30;;;;;;;25.64;46.09;100365.72;5052266;28;20136;-70
2021/06/06 05:27:36;;;;;;;7.20;5.20;;;;;;;25.31;46.17;100380.72;5052443;28;20041;-72
2021/06/06 05:30:07;;;;;;;9.23;5.63;;;;;;;26.06;45.08;100372.44;5052314;28;20041;-73
2021/06/06 05:32:36;;;;;;;8.80;5.90;;;;;;;26.27;44.73;100376.28;5052775;28;20049;-74
2021/06/06 05:35:06;;;;;;;6.85;5.28;;;;;;;26.30;44.07;100371.28;5051888;28;20405;-74
2021/06/06 05:37:34;;;;;;;9.73;5.65;;;;;;;25.32;46.50;100379.69;5052642;28;20037;-75
2021/06/06 05:40:04;;;;;;;8.18;5.38;;;;;;;23.89;50.30;100379.16;5052090;28;20049;-75
2021/06/06 05:42:32;;;;;;;6.70;5.53;;;;;;;23.64;51.35;100377.50;5052369;28;20532;-75
2021/06/06 05:45:00;;;;;;;9.10;5.97;;;;;;;22.45;54.37;100383.38;5053191;28;20052;-75
2021/06/06 05:47:28;;;;;;;7.25;5.63;;;;;;;21.80;56.80;100387.66;5056261;28;20067;-73
2021/06/06 05:50:00;;;;;;;10.25;6.43;;;;;;;22.11;56.34;100378.00;5055967;28;20040;-74
2021/06/06 05:52:27;;;;;;;9.55;6.15;;;;;;;22.45;55.57;100382.53;5056180;28;20041;-74
2021/06/06 05:54:55;;;;;;;10.23;6.07;;;;;;;23.95;51.23;100370.28;5055775;28;20142;-74
2021/06/06 05:57:24;;;;;;;8.48;5.85;;;;;;;25.35;47.12;100376.59;5055691;28;20494;-74
2021/06/06 05:59:52;;;;;;;7.85;5.60;;;;;;;26.38;44.40;100371.19;5055804;28;20048;-72
2021/06/06 06:02:21;;;;;;;10.05;5.65;;;;;;;26.46;44.35;100362.88;5055328;28;20041;-67
2021/06/06 06:04:49;;;;;;;8.00;5.10;;;;;;;26.05;44.75;100370.72;5055915;28;20064;-70
2021/06/06 06:07:17;;;;;;;9.05;5.32;;;;;;;25.22;46.50;100371.78;5055225;28;20095;-70
2021/06/06 06:09:45;;;;;;;7.22;4.53;;;;;;;24.14;48.86;100376.34;5055647;28;20150;-70
2021/06/06 06:12:13;;;;;;;7.25;4.75;;;;;;;23.36;51.39;100372.44;5055151;28;20049;-70
2021/06/06 06:14:42;;;;;;;8.30;4.47;;;;;;;23.65;50.88;100371.06;5055558;28;20302;-69
2021/06/06 06:17:10;;;;;;;6.88;4.97;;;;;;;23.54;51.23;100368.66;5055559;28;20107;-77
2021/06/06 06:19:37;;;;;;;7.70;4.70;;;;;;;24.47;48.94;100377.91;5055561;28;20041;-74
2021/06/06 06:22:05;;;;;;;6.00;4.55;;;;;;;25.96;46.07;100367.28;5055153;28;20045;-71
2021/06/06 06:24:35;;;;;;;7.20;5.15;;;;;;;24.56;49.44;100367.78;5055523;28;20037;-71
2021/06/06 06:27:03;;;;;;;6.97;4.95;;;;;;;25.60;46.86;100366.28;5055016;28;20045;-71
2021/06/06 06:29:31;;;;;;;7.88;5.10;;;;;;;26.34;45.25;100366.25;5055384;28;20102;-70
2021/06/06 06:32:00;;;;;;;6.88;4.90;;;;;;;28.03;40.96;100362.78;5055373;28;20471;-64
2021/06/06 06:34:28;;;;;;;5.78;4.40;;;;;;;28.50;39.45;100368.28;5055436;28;20091;-69
2021/06/06 06:36:56;;;;;;;7.35;4.18;;;;;;;27.45;40.55;100370.38;5054902;28;20509;-73
2021/06/06 06:39:24;;;;;;;7.30;4.30;;;;;;;27.53;40.17;100375.72;5054747;28;20091;-70
2021/06/06 06:41:52;;;;;;;7.00;4.00;;;;;;;24.99;45.02;100385.38;5054861;28;20494;-70
2021/06/06 06:44:20;;;;;;;5.70;3.97;;;;;;;24.47;46.82;100380.63;5054511;28;20052;-69
2021/06/06 06:46:48;;;;;;;6.35;3.75;;;;;;;26.04;43.64;100382.69;5054876;28;20037;-72
2021/06/06 06:49:18;;;;;;;6.32;3.83;;;;;;;26.27;42.73;100384.50;5053567;28;20052;-69
2021/06/06 06:51:45;;;;;;;7.13;4.05;;;;;;;25.73;43.47;100384.78;5054947;28;20375;-72
2021/06/06 06:54:13;;;;;;;7.40;4.38;;;;;;;26.28;43.22;100381.56;5054356;28;20082;-71
2021/06/06 06:56:41;;;;;;;6.13;4.00;;;;;;;26.67;41.63;100385.84;5054104;28;20045;-73
2021/06/06 06:59:08;;;;;;;5.78;3.90;;;;;;;26.71;41.77;100385.25;5054645;28;20041;-73
2021/06/06 07:01:36;;;;;;;5.63;3.90;;;;;;;25.84;43.57;100387.88;5055152;28;20049;-72
2021/06/06 07:04:04;;;;;;;6.60;4.45;;;;;;;25.68;43.99;100388.06;5054200;28;20037;-74
2021/06/06 07:06:33;;;;;;;9.02;4.50;;;;;;;25.10;44.49;100393.19;5054495;28;20055;-74
2021/06/06 07:09:01;;;;;;;6.25;4.07;;;;;;;24.69;45.70;100386.28;5054570;28;20462;-74
2021/06/06 07:11:29;;;;;;;6.22;3.95;;;;;;;25.24;45.43;100385.22;5054561;28;20045;-75
2021/06/06 07:13:57;;;;;;;6.70;4.07;;;;;;;25.13;45.69;100383.78;5054389;28;20049;-74
2021/06/06 07:16:24;;;;;;;5.85;4.10;;;;;;;25.31;45.48;100386.19;5054133;28;20045;-74
2021/06/06 07:18:52;;;;;;;6.05;4.20;;;;;;;25.25;45.61;100384.19;5054470;28;20067;-71
2021/06/06 07:21:22;;;;;;;5.93;4.13;;;;;;;24.71;46.84;100370.63;5054088;28;20048;-74
2021/06/06 07:23:52;;;;;;;6.00;4.28;;;;;;;25.06;45.87;100385.53;5054571;28;20041;-72
2021/06/06 07:26:26;;;;;;;6.70;4.40;;;;;;;25.06;45.85;100382.81;5053998;28;20041;-73
2021/06/06 07:28:56;;;;;;;5.68;3.72;;;;;;;25.07;46.14;100388.09;5054129;28;20045;-74
2021/06/06 07:31:25;;;;;;;7.80;4.40;;;;;;;24.87;46.60;100372.34;5053982;28;20045;-69
2021/06/06 07:34:10;;;;;;;6.20;3.88;;;;;;;24.59;47.01;100370.16;5053881;28;20048;-70
2021/06/06 07:36:40;;;;;;;5.72;3.88;;;;;;;24.77;46.36;100369.88;5054421;28;20040;-76
2021/06/06 07:39:12;;;;;;;5.60;4.10;;;;;;;24.54;47.05;100373.44;5054524;28;20037;-75
2021/06/06 07:41:42;;;;;;;6.25;4.30;;;;;;;24.45;47.65;100369.06;5053824;28;20056;-72
2021/06/06 07:44:13;;;;;;;5.60;3.90;;;;;;;24.69;46.54;100372.66;5053935;28;20071;-74
2021/06/06 07:46:42;;;;;;;6.28;3.65;;;;;;;24.53;47.36;100366.28;5053607;28;20106;-68
2021/06/06 07:49:10;;;;;;;5.25;3.90;;;;;;;24.27;47.49;100366.56;5053786;28;20126;-70
2021/06/06 07:51:38;;;;;;;6.18;4.07;;;;;;;23.99;47.69;100366.16;5053378;28;20080;-72
2021/06/06 07:54:06;;;;;;;6.10;3.65;;;;;;;23.98;47.97;100367.19;5053690;28;20091;-72
2021/06/06 07:56:36;;;;;;;6.95;4.20;;;;;;;24.15;48.12;100361.69;5053585;28;20402;-73
2021/06/06 07:59:04;;;;;;;6.68;4.22;;;;;;;24.17;48.07;100365.94;5053619;28;20068;-73
2021/06/06 08:01:32;;;;;;;7.75;3.70;;;;;;;23.95;47.58;100361.28;5053359;28;20075;-73
2021/06/06 08:04:00;;;;;;;6.93;3.50;;;;;;;23.83;47.58;100368.94;5053134;28;20045;-74
2021/06/06 08:06:28;;;;;;;6.07;3.90;;;;;;;23.56;48.92;100369.34;5053122;28;20045;-73
2021/06/06 08:08:58;;;;;;;10.63;6.38;;;;;;;23.74;48.92;100380.91;5052637;28;20049;-74
2021/06/06 08:11:26;;;;;;;5.88;4.35;;;;;;;23.70;48.22;100380.41;5053419;28;20549;-73
2021/06/06 08:13:55;;;;;;;6.63;4.30;;;;;;;23.87;48.97;100374.91;5052964;28;20049;-73
2021/06/06 08:16:22;;;;;;;7.53;5.20;;;;;;;23.96;48.98;100371.97;5053450;28;20053;-70
2021/06/06 08:18:50;;;;;;;5.80;4.43;;;;;;;24.04;50.10;100375.72;5053059;28;20056;-70
2021/06/06 08:21:22;;;;;;;6.47;4.40;;;;;;;24.14;50.00;100381.81;5053274;28;20076;-71
2021/06/06 08:23:52;;;;;;;6.15;4.45;;;;;;;24.19;49.41;100373.94;5052895;28;20041;-70
2021/06/06 08:26:22;;;;;;;6.57;4.95;;;;;;;24.39;48.60;100374.38;5053010;28;20091;-72
2021/06/06 08:28:51;;;;;;;5.55;4.60;;;;;;;24.36;47.73;100374.72;5052829;28;20099;-71
2021/06/06 08:31:23;;;;;;;6.00;4.40;;;;;;;24.49;46.84;100372.25;5052717;28;20436;-70
2021/06/06 08:33:51;;;;;;;8.65;4.43;;;;;;;24.62;47.37;100369.81;5052686;28;20048;-70
2021/06/06 08:36:22;;;;;;;6.90;4.30;;;;;;;24.77;47.44;100380.78;5052306;28;20056;-71
2021/06/06 08:38:50;;;;;;;6.20;4.40;;;;;;;24.88;47.29;100377.63;5052453;28;20045;-72
2021/06/06 08:41:22;;;;;;;7.97;4.78;;;;;;;24.92;47.04;100373.53;5052977;28;20140;-72
2021/06/06 08:43:52;;;;;;;6.03;4.47;;;;;;;25.06;46.04;100375.47;5052545;28;20071;-71
2021/06/06 08:46:24;;;;;;;6.32;4.20;;;;;;;25.40;45.26;100374.16;5053348;28;20041;-71
2021/06/06 08:48:53;;;;;;;5.90;4.10;;;;;;;24.94;44.73;100368.72;5052566;28;20152;-72
2021/06/06 08:51:33;;;;;;;6.32;4.43;;;;;;;24.95;45.01;100364.13;5052856;28;20115;-70
2021/06/06 08:54:08;;;;;;;7.97;4.97;;;;;;;24.91;44.67;100360.06;5052825;28;20051;-72
2021/06/06 08:56:38;;;;;;;6.50;4.10;;;;;;;25.15;44.92;100361.75;5053019;28;20083;-70
2021/06/06 08:59:09;;;;;;;5.55;4.10;;;;;;;24.95;45.26;100358.66;5052668;28;20045;-70
2021/06/06 09:01:43;;;;;;;5.88;3.92;;;;;;;24.75;45.33;100370.06;5052909;28;20045;-69
2021/06/06 09:04:15;;;;;;;7.35;4.70;;;;;;;24.48;46.12;100365.97;5053172;28;20037;-69
2021/06/06 09:06:49;;;;;;;5.85;4.18;;;;;;;24.63;46.22;100359.75;5052595;28;20441;-69
2021/06/06 09:09:30;;;;;;;7.43;4.20;;;;;;;24.81;45.75;100360.31;5052813;28;20136;-69
2021/06/06 09:11:59;;;;;;;5.20;3.90;;;;;;;24.80;44.00;100367.66;5052406;28;20452;-70
2021/06/06 09:14:27;;;;;;;7.13;4.93;;;;;;;24.82;45.39;100367.47;5051470;28;20072;-71
2021/06/06 09:17:02;;;;;;;8.10;4.53;;;;;;;25.16;44.51;100374.38;5052386;28;20049;-69
2021/06/06 09:19:41;;;;;;;5.65;4.53;;;;;;;25.25;44.66;100360.47;5055387;28;20120;-69
2021/06/06 09:22:09;;;;;;;6.88;4.40;;;;;;;24.99;44.95;100360.81;5056895;28;20053;-70
2021/06/06 09:24:42;;;;;;;5.88;4.53;;;;;;;25.19;44.72;100361.22;5056498;28;20051;-71
2021/06/06 09:27:13;;;;;;;8.80;4.70;;;;;;;25.60;44.39;100348.00;5056680;28;20041;-71
2021/06/06 09:29:42;;;;;;;8.77;4.68;;;;;;;25.79;43.84;100362.19;5051524;28;20045;-68
2021/06/06 09:32:15;;;;;;;6.25;4.95;;;;;;;25.58;44.69;100360.16;5056596;28;20041;-72
2021/06/06 09:35:06;;;;;;;6.13;4.90;;;;;;;25.26;45.51;100359.44;5056300;28;20116;-71
2021/06/06 09:37:43;;;;;;;7.88;5.25;;;;;;;24.95;46.22;100362.22;5056690;28;20123;-70
2021/06/06 09:40:25;;;;;;;8.27;5.28;;;;;;;25.14;45.49;100366.38;5056328;28;20040;-70
2021/06/06 09:42:53;;;;;;;8.10;5.10;;;;;;;24.92;46.08;100357.16;5056117;28;20095;-70
2021/06/06 09:45:25;;;;;;;7.55;5.30;;;;;;;25.46;44.77;100362.47;5056362;28;20044;-70
2021/06/06 09:48:04;;;;;;;7.40;5.30;;;;;;;25.44;45.33;100359.09;5056017;28;20482;-71
2021/06/06 09:50:39;;;;;;;7.22;5.50;;;;;;;25.79;44.82;100357.56;5056304;28;20412;-69
2021/06/06 09:53:23;;;;;;;7.57;5.35;;;;;;;26.04;44.17;100349.91;5056054;28;20044;-70
2021/06/06 09:55:52;;;;;;;7.45;5.43;;;;;;;25.31;45.31;100353.44;5055945;28;20045;-71
2021/06/06 09:58:30;;;;;;;6.53;5.68;;;;;;;25.63;45.62;100355.81;5055746;28;20056;-74
2021/06/06 10:01:06;;;;;;;7.95;5.75;;;;;;;26.03;43.80;100356.41;5056090;28;20079;-71
2021/06/06 10:03:39;;;;;;;7.10;5.93;;;;;;;26.27;43.73;100351.69;5055573;28;20399;-71
2021/06/06 10:06:35;;;;;;;10.38;6.07;;;;;;;26.16;43.99;100348.41;5055687;28;20081;-71
2021/06/06 10:09:11;;;;;;;7.20;6.10;;;;;;;26.39;43.52;100352.91;5055908;28;20513;-70
2021/06/06 10:11:57;;;;;;;10.70;7.65;;;;;;;26.12;44.17;100347.06;5055663;28;20069;-73
2021/06/06 10:14:29;;;;;;;9.13;7.00;;;;;;;25.64;45.55;100362.97;5055429;28;20045;-70
2021/06/06 10:17:02;;;;;;;8.15;5.90;;;;;;;25.49;45.97;100351.22;5055251;28;20498;-72
2021/06/06 10:19:34;;;;;;;6.65;5.72;;;;;;;25.77;45.24;100364.22;5055459;28;20037;-71
2021/06/06 10:22:06;;;;;;;;;;;;;;;25.43;45.81;100354.66;5056004;28;20059;-71
2021/06/06 10:24:41;;;;;;;7.57;6.22;;;;;;;25.35;45.87;100355.59;5055261;28;20309;-71
2021/06/06 10:27:13;;;;;;;8.23;6.30;;;;;;;25.62;45.07;100350.56;5054592;28;20103;-72
2021/06/06 10:29:46;;;;;;;9.40;6.53;;;;;;;25.82;44.77;100346.25;5034992;28;20463;-71
2021/06/06 10:32:23;;;;;;;7.82;5.97;;;;;;;25.87;44.33;100337.50;5034824;28;20064;-73
2021/06/06 10:35:00;;;;;;;7.60;6.05;;;;;;;26.06;44.43;100326.00;5035200;28;20465;-69
2021/06/06 10:37:30;;;;;;;8.13;6.57;;;;;;;26.18;43.29;100334.53;5035315;28;20061;-69
2021/06/06 10:40:00;;;;;;;9.80;6.15;;;;;;;26.74;43.34;100332.88;5034138;28;20053;-72
2021/06/06 10:42:34;;;;;;;7.90;6.40;;;;;;;26.13;43.51;100337.81;5035039;28;20048;-71
2021/06/06 10:45:08;;;;;;;8.13;6.50;;;;;;;25.82;44.90;100339.94;5034948;28;20049;-70
2021/06/06 10:47:49;;;;;;;8.88;6.25;;;;;;;26.04;44.00;100336.22;5035248;28;20041;-71
2021/06/06 10:50:35;;;;;;;7.80;6.38;;;;;;;26.14;43.67;100331.31;5034909;28;20140;-70
2021/06/06 10:53:10;;;;;;;6.97;6.20;;;;;;;26.32;44.01;100321.84;5034907;28;20387;-70
2021/06/06 10:55:58;;;;;;;7.13;5.95;;;;;;;26.56;42.84;100327.00;5034695;28;20474;-72
2021/06/06 10:58:34;;;;;;;7.07;6.20;;;;;;;26.53;41.85;100324.66;5044715;28;20041;-74
2021/06/06 11:01:07;;;;;;;10.38;6.25;;;;;;;26.56;42.70;100323.44;5054935;28;20045;-73
2021/06/06 11:03:36;;;;;;;;;;;;;;;26.51;42.20;100321.25;5055220;28;20040;-70
2021/06/06 11:06:20;;;;;;;7.68;5.78;;;;;;;26.47;42.28;100333.66;5054726;28;20275;-70
2021/06/06 11:08:47;;;;;;;7.43;5.97;;;;;;;26.49;42.19;100326.94;5054676;28;20048;-69
2021/06/06 11:11:20;;;;;;;7.20;5.43;;;;;;;26.13;43.88;100342.44;5054614;28;20045;-71
2021/06/06 11:13:51;;;;;;;7.50;6.03;;;;;;;25.73;45.40;100324.69;5054300;28;20044;-71
2021/06/06 11:16:35;;;;;;;8.23;6.28;;;;;;;25.14;45.83;100328.16;5053347;28;20041;-70
2021/06/06 11:19:10;;;;;;;6.50;5.53;;;;;;;25.39;45.74;100337.81;5054439;28;20442;-71
2021/06/06 11:21:44;;;;;;;8.45;5.90;;;;;;;25.83;45.27;100333.44;5054249;28;20083;-69
2021/06/06 11:24:32;;;;;;;6.72;5.88;;;;;;;25.88;43.86;100322.81;5054083;28;20044;-68
2021/06/06 11:27:18;;;;;;;7.43;5.68;;;;;;;26.25;43.83;100330.00;5054212;28;20091;-69
2021/06/06 11:29:51;;;;;;;7.13;5.40;;;;;;;26.14;42.73;100327.72;5054090;28;20045;-69
2021/06/06 11:32:24;;;;;;;6.85;4.82;;;;;;;26.31;41.95;100323.75;5054375;28;20471;-70
2021/06/06 11:35:19;;;;;;;7.80;5.05;;;;;;;26.16;41.96;100321.06;5054012;28;20049;-71
2021/06/06 11:37:51;;;;;;;6.90;5.20;;;;;;;26.07;41.98;100307.69;5054116;28;20048;-72
2021/06/06 11:40:34;;;;;;;6.60;4.43;;;;;;;26.36;42.03;100304.03;5054041;28;20036;-73
2021/06/06 11:43:15;;;;;;;8.00;4.72;;;;;;;26.14;42.19;100311.34;5053726;28;20071;-73